createdAt,value
2022-12-28T00:04:05.701Z,96579.38
2022-12-28T00:09:10.833Z,96575.75
2022-12-28T00:14:12.498Z,96577.25
2022-12-28T00:19:16.039Z,96565.88
2022-12-28T00:24:22.956Z,96567.13
2022-12-28T00:29:24.624Z,96545.84
2022-12-28T00:34:26.205Z,96549.94
2022-12-28T00:39:27.745Z,96544.28
2022-12-28T00:44:29.247Z,96542.56
2022-12-28T00:49:30.710Z,96537.72
2022-12-28T00:54:32.233Z,96537.88
2022-12-28T00:59:33.826Z,96532.72
2022-12-28T01:04:35.369Z,96524.13
2022-12-28T01:09:36.839Z,96527.97
2022-12-28T01:14:38.283Z,96522.03
2022-12-28T01:19:39.868Z,96520.78
2022-12-28T01:24:41.367Z,96520.31
2022-12-28T01:29:42.930Z,96516.69
2022-12-28T01:34:44.733Z,96528.88
2022-12-28T01:39:47.167Z,96521.22
2022-12-28T01:44:51.475Z,96515.59
2022-12-28T01:49:56.816Z,96523.56
2022-12-28T01:55:21.620Z,96512.69
2022-12-28T02:00:25.065Z,96506.78
2022-12-28T02:05:33.095Z,96489.91
2022-12-28T02:10:42.327Z,96481.69
2022-12-28T02:15:49.072Z,96479.81
2022-12-28T02:21:05.811Z,96473.75
2022-12-28T02:26:19.817Z,96467.97
2022-12-28T02:31:26.258Z,96456.28
2022-12-28T02:36:35.076Z,96456.16
2022-12-28T02:41:41.342Z,96446.78
2022-12-28T02:46:44.639Z,96442.16
2022-12-28T02:52:09.127Z,96434.66
2022-12-28T02:57:45.074Z,96433.84
2022-12-28T03:03:11.571Z,96438.81
2022-12-28T03:08:19.366Z,96448.84
2022-12-28T03:13:30.653Z,96439.75
2022-12-28T03:18:34.303Z,96434.78
2022-12-28T03:23:39.334Z,96436.72
2022-12-28T03:28:43.974Z,96420.34
2022-12-28T03:33:49.086Z,96413.31
2022-12-28T03:39:13.598Z,96409.00
2022-12-28T03:44:27.701Z,96406.97
2022-12-28T03:49:29.716Z,96387.63
2022-12-28T03:54:31.482Z,96387.63
2022-12-28T03:59:33.233Z,96384.22
2022-12-28T04:04:36.582Z,96380.31
2022-12-28T04:09:38.240Z,96380.31
2022-12-28T04:14:40.137Z,96374.25
2022-12-28T04:19:41.698Z,96368.41
2022-12-28T04:24:43.281Z,96366.28
2022-12-28T04:29:45.746Z,96369.56
2022-12-28T04:34:53.326Z,96368.41
2022-12-28T04:39:57.281Z,96362.81
2022-12-28T04:44:59.193Z,96361.75
2022-12-28T04:50:00.666Z,96353.44
2022-12-28T04:55:02.299Z,96355.69
2022-12-28T05:00:04.287Z,96350.69
2022-12-28T05:05:06.282Z,96345.81
2022-12-28T05:10:08.267Z,96339.91
2022-12-28T05:15:10.309Z,96332.38
2022-12-28T05:20:12.017Z,96335.13
2022-12-28T05:25:13.645Z,96330.63
2022-12-28T05:30:15.192Z,96328.47
2022-12-28T05:35:16.802Z,96326.63
2022-12-28T05:40:18.379Z,96328.41
2022-12-28T05:45:19.865Z,96322.59
2022-12-28T05:50:21.350Z,96327.56
2022-12-28T05:55:22.876Z,96323.53
2022-12-28T06:00:24.479Z,96330.41
2022-12-28T06:05:26.024Z,96334.22
2022-12-28T06:10:27.630Z,96329.00
2022-12-28T06:15:29.166Z,96338.00
2022-12-28T06:20:30.655Z,96325.25
2022-12-28T06:25:32.224Z,96334.25
2022-12-28T06:30:33.815Z,96329.19
2022-12-28T06:35:35.327Z,96328.19
2022-12-28T06:41:10.978Z,96322.66
2022-12-28T06:45:58.509Z,96326.31
2022-12-28T06:51:03.966Z,96320.88
2022-12-28T06:56:08.462Z,96313.97
2022-12-28T07:01:19.796Z,96316.97
2022-12-28T07:06:23.643Z,96321.47
2022-12-28T07:11:25.223Z,96308.63
2022-12-28T07:21:34.045Z,96308.72
2022-12-28T07:26:37.649Z,96327.97
2022-12-28T07:31:45.292Z,96311.91
2022-12-28T07:36:48.703Z,96314.59
2022-12-28T07:41:50.222Z,96306.81
2022-12-28T07:46:56.274Z,96312.59
2022-12-28T07:51:57.763Z,96311.09
2022-12-28T07:56:59.460Z,96306.75
2022-12-28T08:02:01.310Z,96305.44
2022-12-28T08:07:02.907Z,96300.56
2022-12-28T08:12:04.830Z,96295.88
2022-12-28T08:17:06.529Z,96293.59
2022-12-28T08:22:08.006Z,96280.72
2022-12-28T08:27:09.504Z,96284.69
2022-12-28T08:32:11.049Z,96271.41
2022-12-28T08:37:12.558Z,96264.13
2022-12-28T08:42:14.108Z,96254.63
2022-12-28T08:47:15.690Z,96249.94
2022-12-28T08:52:17.268Z,96263.06
2022-12-28T08:57:18.844Z,96251.50
2022-12-28T09:02:20.779Z,96239.03
2022-12-28T09:07:22.485Z,96245.53
2022-12-28T09:12:24.054Z,96244.19
2022-12-28T09:17:26.094Z,96250.16
2022-12-28T09:22:27.746Z,96251.63
2022-12-28T09:27:29.306Z,96250.88
2022-12-28T09:32:30.835Z,96244.22
2022-12-28T09:37:32.405Z,96235.88
2022-12-28T09:42:41.199Z,96243.44
2022-12-28T09:47:51.529Z,96216.53
2022-12-28T09:53:05.154Z,96211.19
2022-12-28T09:58:15.087Z,96211.50
2022-12-28T10:03:27.350Z,96201.41
2022-12-28T10:08:29.533Z,96193.91
2022-12-28T10:13:54.221Z,96185.03
2022-12-28T10:18:56.544Z,96180.97
2022-12-28T10:29:23.047Z,96163.91
2022-12-28T10:34:24.999Z,96160.84
2022-12-28T10:39:32.507Z,96149.50
2022-12-28T10:55:33.589Z,96114.22
2022-12-28T11:00:35.188Z,96090.28
2022-12-28T11:03:21.192Z,96141.50
2022-12-28T11:05:36.889Z,96097.72
2022-12-28T11:10:38.670Z,96084.59
2022-12-28T11:15:40.181Z,96075.19
2022-12-28T11:20:50.729Z,96065.66
2022-12-28T11:25:52.588Z,96060.47
2022-12-28T11:30:54.307Z,96064.84
2022-12-28T11:35:59.834Z,96063.91
2022-12-28T11:41:01.827Z,96046.75
2022-12-28T11:46:21.733Z,96040.69
2022-12-28T11:51:23.172Z,96033.91
2022-12-28T11:56:47.554Z,96030.56
2022-12-28T12:01:53.967Z,96019.31
2022-12-28T12:06:55.445Z,96017.63
2022-12-28T12:11:59.046Z,96009.63
2022-12-28T12:17:05.986Z,96005.91
2022-12-28T12:22:28.631Z,95994.72
2022-12-28T12:27:30.081Z,95995.31
2022-12-28T12:32:55.859Z,95989.63
2022-12-28T12:38:25.374Z,95989.72
2022-12-28T12:43:48.300Z,95974.91
2022-12-28T12:49:20.740Z,95978.31
2022-12-28T12:54:55.123Z,95957.19
2022-12-28T13:00:01.809Z,95970.91
2022-12-28T13:05:05.198Z,95960.97
2022-12-28T13:10:14.501Z,95963.97
2022-12-28T13:15:17.438Z,95962.66
2022-12-28T13:20:21.235Z,95964.56
2022-12-28T13:25:25.060Z,95938.25
2022-12-28T13:30:27.812Z,95947.47
2022-12-28T13:35:33.401Z,95944.34
2022-12-28T13:40:37.700Z,95949.22
2022-12-28T13:45:39.553Z,95947.06
2022-12-28T13:50:41.210Z,95937.13
2022-12-28T13:55:51.583Z,95939.59
2022-12-28T14:00:55.541Z,95932.09
2022-12-28T14:05:59.411Z,95923.03
2022-12-28T14:11:02.241Z,95922.47
2022-12-28T14:16:04.851Z,95912.38
2022-12-28T14:21:06.816Z,95906.91
2022-12-28T14:26:18.406Z,95907.31
2022-12-28T14:31:31.609Z,95903.88
2022-12-28T14:36:48.937Z,95899.25
2022-12-28T14:41:50.932Z,95903.44
2022-12-28T14:46:52.562Z,95900.84
2022-12-28T14:52:09.828Z,95895.16
2022-12-28T14:57:22.526Z,95886.84
2022-12-28T15:02:33.289Z,95882.50
2022-12-28T15:07:35.248Z,95883.41
2022-12-28T15:12:36.716Z,95882.66
2022-12-28T15:17:38.347Z,95879.78
2022-12-28T15:22:40.098Z,95872.00
2022-12-28T15:27:41.737Z,95874.47
2022-12-28T15:32:43.434Z,95866.69
2022-12-28T15:37:44.997Z,95857.22
2022-12-28T15:42:46.552Z,95859.56
2022-12-28T15:47:48.037Z,95849.00
2022-12-28T15:52:49.621Z,95852.50
2022-12-28T15:57:51.128Z,95856.47
2022-12-28T16:02:52.801Z,95846.75
2022-12-28T16:07:54.364Z,95859.41
2022-12-28T16:12:55.883Z,95851.06
2022-12-28T16:17:57.816Z,95852.41
2022-12-28T16:22:59.450Z,95848.09
2022-12-28T16:28:01.018Z,95849.47
2022-12-28T16:33:03.053Z,95847.78
2022-12-28T16:38:06.152Z,95839.88
2022-12-28T16:43:07.911Z,95836.25
2022-12-28T16:48:15.721Z,95840.84
2022-12-28T16:53:22.805Z,95823.72
2022-12-28T16:58:26.106Z,95825.78
2022-12-28T17:03:27.620Z,95819.34
2022-12-28T17:08:29.807Z,95821.09
2022-12-28T17:13:31.283Z,95814.66
2022-12-28T17:18:32.965Z,95812.19
2022-12-28T17:23:34.548Z,95806.63
2022-12-28T17:28:36.469Z,95806.69
2022-12-28T17:33:40.444Z,95809.66
2022-12-28T17:38:42.157Z,95802.06
2022-12-28T17:43:52.063Z,95802.13
2022-12-28T17:48:57.819Z,95804.41
2022-12-28T17:53:59.402Z,95794.84
2022-12-28T17:59:00.999Z,95782.19
2022-12-28T18:04:02.551Z,95778.00
2022-12-28T18:09:04.439Z,95777.31
2022-12-28T18:14:06.004Z,95776.03
2022-12-28T18:19:07.584Z,95765.63
2022-12-28T18:24:12.654Z,95768.00
2022-12-28T18:29:14.177Z,95761.16
2022-12-28T18:34:15.688Z,95760.97
2022-12-28T18:39:17.279Z,95760.63
2022-12-28T18:44:19.002Z,95750.16
2022-12-28T18:49:21.019Z,95745.94
2022-12-28T18:54:22.657Z,95746.41
2022-12-28T18:59:24.640Z,95750.25
2022-12-28T19:04:26.721Z,95741.13
2022-12-28T19:09:28.693Z,95743.38
2022-12-28T19:14:30.247Z,95728.78
2022-12-28T19:19:31.969Z,95728.16
2022-12-28T19:24:33.683Z,95716.78
2022-12-28T19:29:35.321Z,95723.97
2022-12-28T19:34:36.926Z,95710.75
2022-12-28T19:39:38.502Z,95712.03
2022-12-28T19:44:40.035Z,95695.34
2022-12-28T19:49:41.721Z,95706.31
2022-12-28T19:54:43.223Z,95690.13
2022-12-28T19:59:44.790Z,95690.91
2022-12-28T20:04:46.459Z,95685.56
2022-12-28T20:09:49.965Z,95677.75
2022-12-28T20:14:51.526Z,95672.81
2022-12-28T20:19:53.110Z,95665.75
2022-12-28T20:24:54.934Z,95667.22
2022-12-28T20:29:56.983Z,95647.75
2022-12-28T20:34:58.762Z,95653.22
2022-12-28T20:40:00.532Z,95641.66
2022-12-28T20:45:02.154Z,95647.50
2022-12-28T20:50:03.962Z,95639.59
2022-12-28T20:55:05.989Z,95635.91
2022-12-28T21:00:09.082Z,95639.63
2022-12-28T21:05:11.290Z,95635.38
2022-12-28T21:10:13.784Z,95642.44
2022-12-28T21:15:16.412Z,95639.81
2022-12-28T21:20:18.373Z,95641.09
2022-12-28T21:25:20.030Z,95634.44
2022-12-28T21:30:21.601Z,95637.41
2022-12-28T21:35:26.727Z,95641.41
2022-12-28T21:40:30.530Z,95636.44
2022-12-28T21:45:32.122Z,95616.78
2022-12-28T21:50:34.073Z,95622.22
2022-12-28T21:55:35.764Z,95613.25
2022-12-28T22:00:37.396Z,95615.22
2022-12-28T22:05:39.096Z,95621.31
2022-12-28T22:10:40.706Z,95614.75
2022-12-28T22:15:42.290Z,95620.50
2022-12-28T22:20:44.243Z,95623.56
2022-12-28T22:25:45.827Z,95618.25
2022-12-28T22:30:47.474Z,95623.84
2022-12-28T22:35:49.047Z,95624.91
2022-12-28T22:40:58.559Z,95623.44
2022-12-28T22:46:05.481Z,95628.72
2022-12-28T22:51:10.449Z,95625.69
2022-12-28T22:56:14.364Z,95618.69
2022-12-28T23:01:18.463Z,95621.94
2022-12-28T23:06:20.189Z,95608.13
2022-12-28T23:11:21.813Z,95609.28
2022-12-28T23:16:23.532Z,95604.31
2022-12-28T23:21:25.211Z,95605.44
2022-12-28T23:26:26.752Z,95591.81
2022-12-28T23:31:28.420Z,95599.69
2022-12-28T23:36:30.016Z,95586.00
2022-12-28T23:41:31.553Z,95572.66
2022-12-28T23:46:33.261Z,95582.03
2022-12-28T23:51:34.792Z,95568.81
2022-12-28T23:56:36.353Z,95563.31
